Messwerte Eiken

Temperatur

Temperatur
°C
1539986400 0.00 0.00 8.9
1539990000 1.00 1.00 8.3
1539993600 2.00 2.00 8.2
1539997200 3.00 3.00 9.0
1540000800 4.00 4.00 8.6
1540004400 5.00 5.00 8.5
1540008000 6.00 6.00 8.7
1540011600 7.00 7.00 8.7
1540015200 8.00 8.00 8.8
1540018800 9.00 9.00
1540022400 10.00 10.00
1540026000 11.00 11.00
1540029600 12.00 12.00 13.8
1540033200 13.00 13.00 15.6
1540036800 14.00 14.00 16.8
1540040400 15.00 15.00 17.5
1540044000 16.00 16.00 18.1
1540047600 17.00 17.00 18.1
1540051200 18.00 18.00 17.4
1540054800 19.00 19.00 15.7
1540058400 20.00 20.00 13.5
1540062000 21.00 21.00 11.8
1540065600 22.00 22.00 10.7
1540069200 23.00 23.00 9.7

Wir danken unserem Partner: Landi Eiken

Aktuellste Messwerte

Temperatur
9.7 °C
Feuchtigkeit
89 %
Niederschlag
0.0 mm
Luftdruck
1029.0 hPa
Globalstrahlung
0 W/m²
Messzeit: 20. Oktober 2018, 23.00Datenquelle: MeteoNews Partner, Landi Eiken

Weitere Messstationen in der Nähe

Messstation Temperatur Entfernung
Schwörstadt 9.8 °C 11 km
Möhlin 8.5 °C 11 km
Oltingen 10.2 °C 13 km
Rünenberg 10.0 °C 14 km
Häfelfingen 8.5 °C 17 km
Zunzgen-Steinenweg 8.7 °C 17 km
Zunzgen 8.4 °C 17 km

Niederschlag

Niederschlagsmenge
mm
1539986400 0.00 23.00 - 0.00 0.0
1539990000 1.00 0.00 - 1.00 0.0
1539993600 2.00 1.00 - 2.00 0.0
1539997200 3.00 2.00 - 3.00 0.0
1540000800 4.00 3.00 - 4.00 0.0
1540004400 5.00 4.00 - 5.00 0.0
1540008000 6.00 5.00 - 6.00 0.0
1540011600 7.00 6.00 - 7.00 0.0
1540015200 8.00 7.00 - 8.00
1540018800 9.00 8.00 - 9.00
1540022400 10.00 9.00 - 10.00
1540026000 11.00 10.00 - 11.00
1540029600 12.00 11.00 - 12.00 0.0
1540033200 13.00 12.00 - 13.00 0.0
1540036800 14.00 13.00 - 14.00 0.0
1540040400 15.00 14.00 - 15.00 0.0
1540044000 16.00 15.00 - 16.00 0.0
1540047600 17.00 16.00 - 17.00 0.0
1540051200 18.00 17.00 - 18.00 0.0
1540054800 19.00 18.00 - 19.00 0.0
1540058400 20.00 19.00 - 20.00 0.0
1540062000 21.00 20.00 - 21.00 0.0
1540065600 22.00 21.00 - 22.00 0.0
1540069200 23.00 22.00 - 23.00 0.0

Wind

Windrichtung Böen Mittelwind
° km/h km/h
1539986400 0.00 23.00 - 0.00
1539990000 1.00 0.00 - 1.00
1539993600 2.00 1.00 - 2.00
1539997200 3.00 2.00 - 3.00
1540000800 4.00 3.00 - 4.00
1540004400 5.00 4.00 - 5.00
1540008000 6.00 5.00 - 6.00
1540011600 7.00 6.00 - 7.00
1540015200 8.00 7.00 - 8.00
1540018800 9.00 8.00 - 9.00
1540022400 10.00 9.00 - 10.00
1540026000 11.00 10.00 - 11.00
1540029600 12.00 11.00 - 12.00
1540033200 13.00 12.00 - 13.00
1540036800 14.00 13.00 - 14.00 360° 21 8
1540040400 15.00 14.00 - 15.00 360° 23 10
1540044000 16.00 15.00 - 16.00 360° 23 6
1540047600 17.00 16.00 - 17.00 360° 11 3
1540051200 18.00 17.00 - 18.00 360° 11 3
1540054800 19.00 18.00 - 19.00 360° 18 8
1540058400 20.00 19.00 - 20.00 360° 13 6
1540062000 21.00 20.00 - 21.00 360° 10 6
1540065600 22.00 21.00 - 22.00
1540069200 23.00 22.00 - 23.00

Ihre Wetterstation

Fehlt Ihre Wetterstation auf unserem Portal?

Schreiben Sie an network@meteonews.ch

Klima

Wann ist es am wärmsten? Wann regnet es am wenigsten? Unsere Klimadaten geben Auskunft.

Foto der Station

img